Latest Weather Observations for Yanakie

IDV60801

Issued at 5:52 am EDT Saturday 19 October 2019 (issued every 10 minutes, with the page automatically refreshed every 10 minutes)

About weather observations | Map of weather stations | Latest weather observations for VIC | Other Formats
Station Details ID: 085301 Name: YANAKIE Lat: -38.81 Lon: 146.19 Height: 13.3 m
Data from the previous 72 hours. | See also: Recent months at Yanakie
Date/Time
EDT
Temp
°C
App
Temp
°C
Dew
Point
°C
Rel
Hum
%
Delta-T
°C
Wind Press
QNH
hPa
Press
MSL
hPa
Rain since
9am
mm
Dir  Spd
km/h
Gust
km/h
Spd
kts
Gust
kts
19/05:30am 8.2 - - - - WNW 26 37 14 20 1011.1 1011.1 3.0
19/05:00am 8.2 - - - - WNW 22 33 12 18 1010.9 1010.9 2.4
19/04:30am 8.8 - - - - WSW 30 37 16 20 1010.9 1010.9 1.8
19/04:00am 8.9 - - - - WNW 20 30 11 16 1010.6 1010.6 1.6
19/03:30am 8.7 - - - - WNW 19 24 10 13 1011.0 1011.0 1.6
19/03:00am 8.9 - - - - W 30 41 16 22 1011.2 1011.2 1.6
19/02:30am 9.7 - - - - W 26 35 14 19 1011.1 1011.1 1.6
19/02:00am 10.4 - - - - W 22 33 12 18 1011.1 1011.1 1.6
19/01:30am 10.4 - - - - W 24 32 13 17 1011.2 1011.2 1.6
19/01:00am 10.5 - - - - W 24 32 13 17 1011.2 1011.2 1.6
19/12:30am 10.9 - - - - W 26 35 14 19 1011.3 1011.3 1.6
19/12:00am 10.7 - - - - W 24 32 13 17 1011.4 1011.4 1.6
 
Date/Time
EDT
Temp
°C
App
Temp
°C
Dew
Point
°C
Rel
Hum
%
Delta-T
°C
Wind Press
QNH
hPa
Press
MSL
hPa
Rain since
9am
mm
Dir  Spd
km/h
Gust
km/h
Spd
kts
Gust
kts
18/11:30pm 11.0 - - - - WSW 28 44 15 24 1011.3 1011.3 1.6
18/11:00pm 10.7 - - - - W 24 35 13 19 1011.5 1011.5 1.6
18/10:30pm 10.4 - - - - W 26 35 14 19 1011.3 1011.3 1.4
18/10:06pm 10.7 - - - - W 32 50 17 27 1011.4 1011.4 0.8
18/10:00pm 10.9 - - - - W 32 41 17 22 1011.4 1011.4 0.8
18/09:30pm 10.9 - - - - W 32 41 17 22 1011.3 1011.3 0.2
18/09:03pm 12.2 - - - - W 37 67 20 36 1010.9 1010.9 0.0
18/09:00pm 12.2 - - - - W 32 44 17 24 1010.9 1010.9 0.0
18/08:30pm 12.0 - - - - WSW 33 48 18 26 1010.1 1010.1 0.0
18/08:00pm 11.8 - - - - WSW 37 54 20 29 1009.7 1009.7 0.0
18/07:41pm 12.0 - - - - WSW 39 57 21 31 1009.6 1009.6 0.0
18/07:30pm 11.9 - - - - WSW 39 54 21 29 1009.6 1009.6 0.0
18/07:04pm 12.6 - - - - WSW 43 61 23 33 1008.9 1008.9 0.0
18/07:00pm 13.3 - - - - W 35 61 19 33 1008.8 1008.8 0.0
18/06:59pm 13.7 - - - - W 32 61 17 33 1008.8 1008.8 0.0
18/06:56pm 14.9 - - - - W 26 61 14 33 1008.6 1008.6 0.0
18/06:55pm 16.3 - - - - WNW 24 59 13 32 1008.4 1008.4 0.0
18/06:30pm 17.0 - - - - WNW 28 41 15 22 1007.2 1007.2 0.0
18/06:11pm 17.4 - - - - WNW 32 50 17 27 1007.1 1007.1 0.0
18/06:00pm 17.5 - - - - WNW 30 41 16 22 1007.2 1007.2 0.0
18/05:30pm 18.1 - - - - WNW 30 43 16 23 1007.5 1007.5 0.0
18/05:05pm 18.2 - - - - WNW 35 54 19 29 1007.6 1007.6 0.0
18/05:00pm 18.1 - - - - WNW 41 56 22 30 1007.5 1007.5 0.0
18/04:30pm 17.9 - - - - WNW 41 56 22 30 1007.9 1007.9 0.0
18/04:00pm 18.5 - - - - WNW 35 56 19 30 1008.4 1008.4 0.0
18/03:30pm 18.1 - - - - WNW 50 70 27 38 1008.7 1008.7 0.0
18/03:05pm 17.7 - - - - WNW 43 67 23 36 1008.9 1008.9 0.0
18/03:00pm 17.1 - - - - WNW 44 59 24 32 1009.1 1009.1 0.0
18/02:30pm 17.2 - - - - NW 44 61 24 33 1009.3 1009.3 0.0
18/02:00pm 16.7 - - - - WNW 37 57 20 31 1010.1 1010.1 0.0
18/01:40pm 16.6 - - - - WNW 39 61 21 33 1010.5 1010.5 0.0
18/01:30pm 16.1 - - - - WNW 39 52 21 28 1010.7 1010.7 0.0
18/01:01pm 15.1 - - - - NW 30 48 16 26 1011.2 1011.2 0.0
18/01:00pm 14.9 - - - - NW 30 48 16 26 1011.4 1011.4 0.0
18/12:30pm 14.1 - - - - NW 37 52 20 28 1011.9 1011.9 0.0
18/12:00pm 13.2 - - - - NW 33 48 18 26 1012.4 1012.4 0.0
18/11:39am 13.3 - - - - NW 32 50 17 27 1012.6 1012.6 0.0
18/11:30am 13.2 - - - - NW 32 46 17 25 1012.8 1012.8 0.0
18/11:24am 13.2 - - - - WNW 28 46 15 25 1013.0 1013.0 0.0
18/11:00am 12.8 - - - - NW 30 41 16 22 1013.2 1013.2 0.0
18/10:30am 12.7 - - - - NW 33 46 18 25 1013.3 1013.3 0.0
18/10:00am 12.7 - - - - NW 35 44 19 24 1013.1 1013.1 0.0
18/09:30am 12.3 - - - - NW 37 54 20 29 1013.4 1013.4 0.0
18/09:00am 11.9 - - - - NW 37 46 20 25 1013.7 1013.7 6.6
18/08:30am 10.9 - - - - NW 26 43 14 23 1013.8 1013.8 6.6
18/08:00am 9.7 - - - - NW 20 30 11 16 1014.1 1014.1 6.6
18/07:30am 9.0 - - - - NW 13 19 7 10 1014.3 1014.3 6.6
18/07:00am 9.1 - - - - WNW 15 26 8 14 1014.2 1014.2 6.6
18/06:30am 8.6 - - - - WNW 15 22 8 12 1014.1 1014.1 6.6
18/06:00am 8.0 - - - - WNW 15 22 8 12 1014.1 1014.1 6.6
18/05:30am 8.5 - - - - WNW 19 26 10 14 1014.0 1014.0 6.6
18/05:00am 9.3 - - - - NW 20 30 11 16 1013.8 1013.8 6.6
18/04:30am 9.8 - - - - WNW 24 33 13 18 1013.7 1013.7 6.6
18/04:00am 9.8 - - - - WNW 20 26 11 14 1013.7 1013.7 6.6
18/03:30am 10.1 - - - - WNW 20 30 11 16 1013.9 1013.9 6.6
18/03:00am 10.2 - - - - WNW 22 32 12 17 1013.8 1013.8 6.6
18/02:30am 10.4 - - - - WNW 19 24 10 13 1013.9 1013.9 6.6
18/02:00am 10.0 - - - - W 17 22 9 12 1014.0 1014.0 6.6
18/01:30am 10.2 - - - - W 20 28 11 15 1014.4 1014.4 6.6
18/01:00am 10.5 - - - - W 22 32 12 17 1014.6 1014.6 6.6
18/12:30am 11.0 - - - - W 20 26 11 14 1014.6 1014.6 6.6
18/12:00am 10.5 - - - - W 19 24 10 13 1014.7 1014.7 6.6
 
Date/Time
EDT
Temp
°C
App
Temp
°C
Dew
Point
°C
Rel
Hum
%
Delta-T
°C
Wind Press
QNH
hPa
Press
MSL
hPa
Rain since
9am
mm
Dir  Spd
km/h
Gust
km/h
Spd
kts
Gust
kts
17/11:30pm 10.4 - - - - W 20 24 11 13 1014.6 1014.6 6.6
17/11:00pm 11.0 - - - - W 20 28 11 15 1014.6 1014.6 6.6
17/10:30pm 11.0 - - - - W 22 28 12 15 1014.4 1014.4 6.6
17/10:00pm 11.0 - - - - W 19 26 10 14 1014.0 1014.0 6.6
17/09:30pm 9.8 - - - - W 15 19 8 10 1013.7 1013.7 6.6
17/09:00pm 10.6 - - - - W 20 26 11 14 1013.2 1013.2 6.6
17/08:30pm 10.8 - - - - WSW 24 33 13 18 1012.6 1012.6 6.6
17/08:00pm 10.8 - - - - W 28 41 15 22 1011.8 1011.8 6.6
17/07:30pm 11.2 - - - - W 30 37 16 20 1011.2 1011.2 6.6
17/07:00pm 11.6 - - - - WSW 32 43 17 23 1010.4 1010.4 6.6
17/06:30pm 11.6 - - - - W 32 43 17 23 1009.9 1009.9 6.6
17/06:00pm 12.2 - - - - WSW 32 44 17 24 1009.3 1009.3 6.4
17/05:30pm 12.0 - - - - W 39 54 21 29 1008.6 1008.6 6.4
17/05:00pm 11.4 - - - - W 28 39 15 21 1008.1 1008.1 6.4
17/04:30pm 12.1 - - - - WNW 35 46 19 25 1007.9 1007.9 6.4
17/04:00pm 11.3 - - - - W 39 52 21 28 1007.6 1007.6 6.4
17/03:30pm 11.9 - - - - WNW 33 54 18 29 1007.3 1007.3 6.2
17/03:14pm 12.2 - - - - WNW 39 57 21 31 1007.3 1007.3 6.2
17/03:00pm 11.1 - - - - W 32 43 17 23 1007.3 1007.3 6.2
17/02:57pm 10.4 - - - - W 32 43 17 23 1007.3 1007.3 6.2
17/02:30pm 8.7 - - - - WSW 39 54 21 29 1008.1 1008.1 5.2
17/02:17pm 10.6 - - - - W 39 57 21 31 1007.6 1007.6 4.4
17/02:00pm 11.2 - - - - W 35 52 19 28 1007.4 1007.4 4.4
17/01:30pm 9.4 - - - - W 32 43 17 23 1007.3 1007.3 4.4
17/01:00pm 8.7 - - - - W 32 52 17 28 1007.7 1007.7 3.6
17/12:30pm 8.7 - - - - W 41 61 22 33 1007.4 1007.4 1.8
17/12:13pm 10.6 - - - - WNW 39 59 21 32 1006.8 1006.8 1.6
17/12:00pm 11.9 - - - - WNW 37 50 20 27 1006.9 1006.9 1.6
17/11:35am 9.7 - - - - WNW 28 46 15 25 1006.8 1006.8 1.6
17/11:30am 9.6 - - - - WNW 24 32 13 17 1006.8 1006.8 1.6
17/11:00am 10.0 - - - - WNW 26 33 14 18 1007.0 1007.0 0.8
17/10:45am 9.3 - - - - W 39 57 21 31 1006.8 1006.8 0.2
17/10:30am 12.1 - - - - WNW 30 46 16 25 1006.6 1006.6 0.0
17/10:00am 11.6 - - - - WNW 30 41 16 22 1006.7 1006.7 0.0
17/09:30am 10.7 - - - - WNW 28 43 15 23 1006.6 1006.6 0.0
17/09:00am 10.7 - - - - NW 30 41 16 22 1006.3 1006.3 4.4
17/08:30am 9.5 - - - - NW 17 24 9 13 1006.6 1006.6 4.4
17/08:00am 9.2 - - - - NNW 13 22 7 12 1006.4 1006.4 4.4
17/07:30am 8.9 - - - - NW 19 24 10 13 1005.9 1005.9 4.4
17/07:00am 8.2 - - - - N 7 9 4 5 1006.1 1006.1 4.2
17/06:30am 8.0 - - - - NW 11 15 6 8 1005.9 1005.9 4.2
17/06:00am 7.9 - - - - W 17 22 9 12 1005.7 1005.7 4.2
17/05:30am 7.4 - - - - NW 24 54 13 29 1006.2 1006.2 3.0
17/05:27am 9.3 - - - - NNW 15 52 8 28 1006.1 1006.1 2.4
17/05:00am 9.8 - - - - N 4 6 2 3 1004.5 1004.5 1.8
17/04:30am 9.8 - - - - NNE 6 7 3 4 1004.6 1004.6 1.8
17/04:00am 9.9 - - - - ENE 4 6 2 3 1005.3 1005.3 1.8
17/03:30am 10.4 - - - - CALM 0 0 0 0 1005.8 1005.8 1.8
17/03:00am 10.2 - - - - NNE 4 6 2 3 1006.4 1006.4 1.6
17/02:30am 10.1 - - - - N 4 7 2 4 1006.9 1006.9 0.2
17/02:00am 9.3 - - - - CALM 0 4 0 2 1007.1 1007.1 0.2
17/01:30am 8.8 - - - - N 2 2 1 1 1007.7 1007.7 0.2
17/01:00am 9.6 - - - - N 6 9 3 5 1007.9 1007.9 0.2
17/12:30am 9.4 - - - - N 7 9 4 5 1008.1 1008.1 0.2
17/12:00am 10.1 - - - - N 6 7 3 4 1008.2 1008.2 0.2
 
Date/Time
EDT
Temp
°C
App
Temp
°C
Dew
Point
°C
Rel
Hum
%
Delta-T
°C
Wind Press
QNH
hPa
Press
MSL
hPa
Rain since
9am
mm
Dir  Spd
km/h
Gust
km/h
Spd
kts
Gust
kts
16/11:30pm 8.7 - - - - NE 2 6 1 3 1008.5 1008.5 0.2
16/11:00pm 9.3 - - - - ENE 6 7 3 4 1008.8 1008.8 0.2
16/10:30pm 9.7 - - - - E 2 6 1 3 1008.9 1008.9 0.2
16/10:00pm 9.8 - - - - E 4 7 2 4 1009.0 1009.0 0.2
16/09:30pm 8.3 - - - - NNE 2 6 1 3 1009.0 1009.0 0.2
16/09:00pm 9.4 - - - - CALM 0 0 0 0 1009.0 1009.0 0.2
16/08:30pm 10.0 - - - - SW 2 6 1 3 1008.9 1008.9 0.2
16/08:00pm 10.8 - - - - S 7 11 4 6 1008.7 1008.7 0.2
16/07:30pm 11.4 - - - - S 13 20 7 11 1008.4 1008.4 0.2
16/07:00pm 12.3 - - - - S 15 24 8 13 1008.0 1008.0 0.2
16/06:30pm 13.4 - - - - SSW 13 17 7 9 1007.7 1007.7 0.2
16/06:00pm 13.4 - - - - SSW 17 22 9 12 1007.4 1007.4 0.2
16/05:30pm 13.6 - - - - SSW 17 28 9 15 1007.1 1007.1 0.2
16/05:00pm 15.7 - - - - SSE 7 13 4 7 1006.4 1006.4 0.2
16/04:30pm 17.2 - - - - WNW 7 11 4 6 1006.4 1006.4 0.2
16/04:00pm 16.5 - - - - NW 7 11 4 6 1006.7 1006.7 0.2
16/03:30pm 16.2 - - - - E 9 17 5 9 1007.1 1007.1 0.2
16/03:00pm 16.2 - - - - NE 9 13 5 7 1007.7 1007.7 0.2
16/02:30pm 15.9 - - - - ENE 13 20 7 11 1008.3 1008.3 0.2
16/02:00pm 15.0 - - - - ENE 13 19 7 10 1008.7 1008.7 0.2
16/01:30pm 14.3 - - - - ENE 17 24 9 13 1008.9 1008.9 0.2
16/01:00pm 14.0 - - - - ENE 17 24 9 13 1009.2 1009.2 0.2
16/12:30pm 14.0 - - - - ENE 17 24 9 13 1009.0 1009.0 0.2
16/12:00pm 13.5 - - - - ENE 19 26 10 14 1009.5 1009.5 0.2
16/11:30am 13.2 - - - - ENE 13 22 7 12 1010.2 1010.2 0.2
16/11:00am 12.8 - - - - ENE 19 28 10 15 1010.0 1010.0 0.2
16/10:30am 12.7 - - - - ENE 17 26 9 14 1010.5 1010.5 0.0
16/10:00am 12.9 - - - - ENE 15 22 8 12 1010.5 1010.5 0.0
16/09:30am 12.8 - - - - ENE 13 17 7 9 1010.9 1010.9 0.0
16/09:00am 12.7 - - - - ENE 7 13 4 7 1011.5 1011.5 0.0
16/08:30am 12.0 - - - - CALM 0 4 0 2 1011.8 1011.8 0.0
16/08:00am 11.4 - - - - CALM 0 0 0 0 1012.0 1012.0 0.0
16/07:30am 10.8 - - - - CALM 0 0 0 0 1011.9 1011.9 0.0
16/07:00am 10.7 - - - - N 4 6 2 3 1012.1 1012.1 0.0
16/06:30am 10.5 - - - - NNE 2 6 1 3 1012.1 1012.1 0.0
16/06:00am 9.8 - - - - SE 2 4 1 2 1011.7 1011.7 0.0

Other formats

Comma delimited format used in spreadsheet applications
http://www.bom.gov.au/fwo/IDV60801/IDV60801.94911.axf

JavaScript Object Notation format (JSON) in row-major order
http://www.bom.gov.au/fwo/IDV60801/IDV60801.94911.json

Data quality

Most of these data are generated automatically and are frequently updated. Quality checks on data are not normally performed. It is possible for incorrect values to appear. Refer to information at About Latest Weather Observations and please check the disclaimer before using these data.